createdAt,value
2019-06-20T00:00:03.556Z,1.60
2019-06-20T00:01:03.532Z,1.80
2019-06-20T00:02:03.518Z,1.80
2019-06-20T00:03:03.510Z,1.70
2019-06-20T00:04:03.500Z,1.90
2019-06-20T00:05:03.496Z,1.80
2019-06-20T00:06:03.497Z,1.70
2019-06-20T00:07:03.472Z,2.00
2019-06-20T00:08:03.459Z,2.10
2019-06-20T00:09:03.449Z,1.90
2019-06-20T00:10:03.516Z,2.00
2019-06-20T00:11:03.422Z,2.00
2019-06-20T00:12:03.411Z,2.10
2019-06-20T00:13:03.410Z,1.80
2019-06-20T00:14:03.388Z,1.80
2019-06-20T00:15:03.416Z,2.00
2019-06-20T00:16:03.384Z,2.10
2019-06-20T00:17:03.373Z,1.90
2019-06-20T00:18:03.346Z,2.20
2019-06-20T00:19:03.337Z,1.70
2019-06-20T00:20:03.351Z,1.90
2019-06-20T00:21:03.345Z,1.60
2019-06-20T00:22:03.302Z,1.70
2019-06-20T00:23:03.290Z,1.80
2019-06-20T00:24:03.279Z,1.80
2019-06-20T00:25:03.277Z,1.80
2019-06-20T00:26:03.259Z,1.80
2019-06-20T00:27:03.253Z,2.00
2019-06-20T00:28:03.377Z,1.70
2019-06-20T00:29:03.297Z,1.60
2019-06-20T00:30:03.232Z,1.80
2019-06-20T00:31:03.211Z,1.70
2019-06-20T00:32:03.200Z,1.70
2019-06-20T00:33:03.193Z,1.80
2019-06-20T00:34:03.175Z,1.90
2019-06-20T00:35:03.172Z,1.80
2019-06-20T00:36:03.156Z,1.70
2019-06-20T00:37:03.140Z,1.80
2019-06-20T00:38:03.133Z,1.60
2019-06-20T00:39:03.123Z,1.80
2019-06-20T00:40:03.124Z,1.80
2019-06-20T00:41:03.103Z,1.80
2019-06-20T00:42:03.194Z,1.90
2019-06-20T00:43:16.392Z,1.90
2019-06-20T00:44:04.067Z,1.90
2019-06-20T00:45:03.063Z,2.00
2019-06-20T00:46:03.054Z,1.80
2019-06-20T00:47:03.032Z,1.90
2019-06-20T00:48:03.030Z,2.10
2019-06-20T00:49:03.011Z,1.90
2019-06-20T00:50:03.029Z,1.90
2019-06-20T00:51:03.035Z,1.90
2019-06-20T00:52:02.978Z,1.80
2019-06-20T00:53:02.967Z,1.70
2019-06-20T00:54:02.957Z,1.80
2019-06-20T00:55:02.945Z,1.90
2019-06-20T00:56:02.940Z,2.00
2019-06-20T00:57:02.922Z,2.20
2019-06-20T00:58:02.911Z,2.40
2019-06-20T00:59:02.907Z,1.80
2019-06-20T01:00:02.950Z,2.00
2019-06-20T01:01:02.890Z,2.20
2019-06-20T01:02:02.876Z,2.20
2019-06-20T01:03:02.856Z,1.90
2019-06-20T01:04:02.851Z,2.20
2019-06-20T01:05:02.855Z,2.00
2019-06-20T01:06:02.833Z,1.90
2019-06-20T01:07:02.816Z,1.90
2019-06-20T01:08:02.804Z,2.00
2019-06-20T01:09:02.798Z,2.10
2019-06-20T01:10:02.789Z,1.90
2019-06-20T01:11:02.805Z,2.40
2019-06-20T01:12:02.761Z,2.10
2019-06-20T01:13:02.751Z,1.90
2019-06-20T01:14:02.744Z,2.30
2019-06-20T01:15:02.730Z,2.10
2019-06-20T01:16:02.767Z,2.10
2019-06-20T01:17:02.722Z,2.10
2019-06-20T01:18:02.709Z,2.40
2019-06-20T01:19:02.691Z,2.00
2019-06-20T01:20:02.674Z,2.10
2019-06-20T01:21:02.674Z,2.90
2019-06-20T01:22:02.658Z,5.10
2019-06-20T01:23:02.644Z,4.70
2019-06-20T01:24:02.638Z,3.00
2019-06-20T01:25:02.626Z,3.00
2019-06-20T01:26:02.625Z,2.40
2019-06-20T01:27:02.598Z,1.60
2019-06-20T01:28:02.605Z,1.50
2019-06-20T01:29:02.588Z,1.50
2019-06-20T01:30:02.567Z,1.80
2019-06-20T01:31:02.576Z,1.60
2019-06-20T01:32:02.547Z,2.20
2019-06-20T01:33:02.558Z,2.10
2019-06-20T01:34:02.562Z,1.70
2019-06-20T01:35:02.515Z,1.90
2019-06-20T01:36:02.515Z,2.00
2019-06-20T01:37:02.493Z,2.00
2019-06-20T01:38:02.483Z,2.00
2019-06-20T01:39:02.474Z,1.70
2019-06-20T01:40:02.462Z,1.90
2019-06-20T01:41:06.003Z,1.80
2019-06-20T01:42:02.446Z,1.90
2019-06-20T01:43:02.428Z,1.40
2019-06-20T01:44:02.416Z,1.90
2019-06-20T01:45:02.403Z,1.60
2019-06-20T01:46:02.404Z,1.70
2019-06-20T01:47:02.538Z,1.80
2019-06-20T01:48:02.373Z,1.70
2019-06-20T01:49:02.362Z,1.80
2019-06-20T01:50:02.350Z,1.80
2019-06-20T01:51:02.372Z,1.80
2019-06-20T01:52:02.327Z,2.00
2019-06-20T01:53:02.319Z,1.80
2019-06-20T01:54:02.308Z,1.80
2019-06-20T01:55:02.297Z,1.80
2019-06-20T01:56:02.322Z,1.70
2019-06-20T01:57:02.321Z,1.80
2019-06-20T01:58:02.264Z,1.50
2019-06-20T01:59:02.253Z,2.30
2019-06-20T02:00:02.242Z,1.90
2019-06-20T02:01:02.276Z,2.00
2019-06-20T02:02:02.225Z,1.70
2019-06-20T02:03:02.212Z,1.80
2019-06-20T02:04:02.202Z,1.90
2019-06-20T02:05:02.197Z,1.80
2019-06-20T02:06:02.229Z,1.90
2019-06-20T02:07:02.177Z,2.00
2019-06-20T02:08:02.154Z,1.90
2019-06-20T02:09:02.153Z,1.70
2019-06-20T02:10:02.133Z,1.90
2019-06-20T02:11:02.123Z,1.80
2019-06-20T02:12:02.122Z,1.80
2019-06-20T02:13:02.106Z,1.80
2019-06-20T02:14:07.306Z,2.00
2019-06-20T02:15:03.091Z,1.90
2019-06-20T02:16:02.074Z,1.80
2019-06-20T02:17:02.087Z,1.60
2019-06-20T02:18:02.046Z,2.00
2019-06-20T02:19:02.037Z,1.80
2019-06-20T02:20:02.028Z,1.80
2019-06-20T02:21:02.016Z,1.90
2019-06-20T02:22:02.026Z,1.80
2019-06-20T02:23:02.007Z,1.90
2019-06-20T02:24:01.981Z,1.80
2019-06-20T02:25:01.992Z,2.10
2019-06-20T02:26:01.963Z,2.00
2019-06-20T02:27:01.961Z,2.20
2019-06-20T02:28:01.937Z,1.70
2019-06-20T02:29:01.929Z,2.50
2019-06-20T02:30:01.917Z,2.10
2019-06-20T02:31:01.912Z,1.80
2019-06-20T02:32:01.909Z,1.70
2019-06-20T02:33:01.884Z,2.20
2019-06-20T02:34:01.871Z,2.00
2019-06-20T02:35:01.899Z,2.00
2019-06-20T02:36:01.856Z,2.30
2019-06-20T02:37:01.857Z,2.30
2019-06-20T02:38:01.827Z,2.30
2019-06-20T02:39:01.828Z,2.10
2019-06-20T02:40:01.808Z,1.90
2019-06-20T02:41:01.796Z,2.10
2019-06-20T02:42:01.797Z,2.00
2019-06-20T02:43:01.785Z,2.20
2019-06-20T02:44:01.762Z,2.50
2019-06-20T02:45:01.751Z,2.00
2019-06-20T02:46:01.740Z,2.20
2019-06-20T02:47:01.738Z,1.80
2019-06-20T02:48:01.720Z,2.40
2019-06-20T02:49:01.711Z,2.20
2019-06-20T02:50:01.705Z,2.00
2019-06-20T02:51:01.685Z,2.20
2019-06-20T02:52:01.691Z,2.00
2019-06-20T02:53:01.723Z,1.80
2019-06-20T02:54:01.653Z,2.30
2019-06-20T02:55:01.641Z,2.30
2019-06-20T02:56:01.632Z,2.30
2019-06-20T02:57:01.631Z,2.10
2019-06-20T02:58:01.609Z,2.30
2019-06-20T02:59:01.604Z,2.00
2019-06-20T03:00:01.791Z,2.50
2019-06-20T03:01:01.576Z,2.20
2019-06-20T03:02:01.576Z,2.10
2019-06-20T03:03:01.577Z,2.10
2019-06-20T03:04:01.552Z,2.20
2019-06-20T03:05:01.542Z,1.90
2019-06-20T03:06:01.522Z,1.90
2019-06-20T03:07:01.522Z,2.10
2019-06-20T03:08:01.501Z,2.00
2019-06-20T03:09:01.489Z,2.00
2019-06-20T03:10:01.482Z,2.30
2019-06-20T03:11:01.479Z,2.00
2019-06-20T03:12:01.467Z,2.20
2019-06-20T03:13:01.444Z,2.50
2019-06-20T03:14:01.437Z,2.20
2019-06-20T03:15:01.445Z,2.50
2019-06-20T03:16:01.417Z,2.30
2019-06-20T03:17:01.442Z,2.50
2019-06-20T03:18:01.395Z,2.30
2019-06-20T03:19:01.389Z,2.00
2019-06-20T03:20:01.371Z,2.10
2019-06-20T03:21:01.360Z,2.20
2019-06-20T03:22:01.455Z,2.30
2019-06-20T03:23:01.348Z,2.50
2019-06-20T03:24:01.328Z,2.50
2019-06-20T03:25:01.318Z,2.40
2019-06-20T03:26:01.314Z,2.30
2019-06-20T03:27:01.298Z,2.40
2019-06-20T03:28:01.297Z,2.40
2019-06-20T03:29:01.283Z,2.40
2019-06-20T03:30:01.264Z,2.20
2019-06-20T03:31:01.253Z,2.40
2019-06-20T03:32:01.239Z,2.60
2019-06-20T03:33:01.285Z,2.20
2019-06-20T03:34:01.218Z,2.50
2019-06-20T03:35:01.211Z,2.60
2019-06-20T03:36:01.203Z,2.40
2019-06-20T03:37:01.240Z,2.50
2019-06-20T03:38:01.189Z,2.10
2019-06-20T03:39:01.164Z,2.30
2019-06-20T03:40:01.154Z,2.30
2019-06-20T03:41:01.144Z,2.30
2019-06-20T03:42:01.137Z,2.50
2019-06-20T03:43:01.134Z,2.40
2019-06-20T03:44:01.115Z,2.70
2019-06-20T03:45:02.506Z,2.20
2019-06-20T03:46:01.096Z,2.60
2019-06-20T03:47:01.077Z,2.50
2019-06-20T03:48:01.081Z,2.40
2019-06-20T03:49:01.057Z,2.70
2019-06-20T03:50:01.061Z,2.60
2019-06-20T03:51:01.037Z,2.50
2019-06-20T03:52:01.027Z,2.40
2019-06-20T03:53:01.024Z,2.80
2019-06-20T03:54:00.999Z,2.60
2019-06-20T03:55:00.992Z,2.30
2019-06-20T03:56:00.979Z,2.40
2019-06-20T03:57:00.977Z,2.50
2019-06-20T03:58:00.985Z,2.40
2019-06-20T03:59:00.953Z,2.30
2019-06-20T04:00:00.941Z,2.30
2019-06-20T04:01:00.925Z,2.40
2019-06-20T04:02:00.918Z,2.40
2019-06-20T04:03:00.914Z,2.50
2019-06-20T04:04:00.894Z,2.20
2019-06-20T04:05:00.883Z,2.40
2019-06-20T04:06:00.870Z,2.40
2019-06-20T04:07:00.859Z,2.40
2019-06-20T04:08:00.858Z,2.50
2019-06-20T04:09:00.840Z,2.20
2019-06-20T04:10:00.847Z,2.50
2019-06-20T04:11:00.822Z,2.20
2019-06-20T04:12:00.804Z,2.30
2019-06-20T04:13:00.822Z,2.80
2019-06-20T04:14:00.787Z,2.30
2019-06-20T04:15:00.773Z,2.40
2019-06-20T04:16:00.762Z,2.40
2019-06-20T04:17:00.843Z,2.50
2019-06-20T04:18:00.755Z,2.20
2019-06-20T04:19:00.735Z,2.10
2019-06-20T04:20:00.729Z,2.30
2019-06-20T04:21:00.713Z,2.30
2019-06-20T04:22:00.704Z,2.40
2019-06-20T04:23:00.733Z,2.40
2019-06-20T04:24:00.678Z,2.30
2019-06-20T04:25:00.706Z,2.50
2019-06-20T04:26:00.659Z,2.50
2019-06-20T04:27:00.648Z,2.90
2019-06-20T04:28:00.646Z,2.30
2019-06-20T04:29:00.621Z,2.60
2019-06-20T04:30:00.620Z,2.20
2019-06-20T04:31:00.598Z,2.90
2019-06-20T04:32:00.589Z,2.50
2019-06-20T04:33:00.929Z,2.50
2019-06-20T04:34:00.577Z,2.80
2019-06-20T04:35:00.556Z,2.20
2019-06-20T04:36:00.545Z,2.50
2019-06-20T04:37:00.542Z,2.60
2019-06-20T04:38:00.528Z,2.50
2019-06-20T04:39:00.527Z,2.50
2019-06-20T04:40:00.502Z,2.60
2019-06-20T04:41:00.495Z,2.60
2019-06-20T04:42:00.484Z,2.70
2019-06-20T04:43:00.469Z,2.80
2019-06-20T04:44:00.471Z,2.60
2019-06-20T04:45:00.452Z,2.60
2019-06-20T04:46:00.438Z,2.50
2019-06-20T04:47:00.425Z,2.50
2019-06-20T04:48:00.419Z,2.70
2019-06-20T04:49:00.415Z,2.60
2019-06-20T04:50:00.405Z,2.70
2019-06-20T04:51:00.390Z,2.70
2019-06-20T04:52:00.378Z,2.50
2019-06-20T04:53:00.369Z,2.80
2019-06-20T04:54:00.366Z,2.50
2019-06-20T04:55:00.340Z,2.30
2019-06-20T04:56:00.331Z,2.60
2019-06-20T04:57:00.320Z,2.70
2019-06-20T04:58:00.306Z,2.50
2019-06-20T04:59:00.310Z,2.60
2019-06-20T05:00:00.287Z,2.50
2019-06-20T05:01:00.283Z,2.10
2019-06-20T05:02:00.267Z,2.50
2019-06-20T05:03:00.289Z,2.80
2019-06-20T05:04:00.256Z,2.20
2019-06-20T05:05:00.234Z,2.40
2019-06-20T05:06:00.226Z,2.40
2019-06-20T05:07:00.211Z,2.20
2019-06-20T05:08:00.198Z,2.40
2019-06-20T05:09:00.216Z,2.20
2019-06-20T05:10:00.186Z,2.50
2019-06-20T05:11:00.179Z,1.90
2019-06-20T05:12:00.195Z,2.20
2019-06-20T05:13:00.151Z,2.20
2019-06-20T05:14:00.177Z,2.30
2019-06-20T05:15:00.139Z,2.50
2019-06-20T05:16:00.114Z,2.20
2019-06-20T05:17:00.103Z,2.20
2019-06-20T05:18:00.104Z,2.20
2019-06-20T05:19:00.090Z,2.00
2019-06-20T05:20:00.076Z,2.20
2019-06-20T05:21:00.058Z,2.40
2019-06-20T05:22:00.043Z,2.40
2019-06-20T05:23:00.039Z,2.30
2019-06-20T05:24:00.031Z,2.60
2019-06-20T05:25:00.017Z,2.50
2019-06-20T05:26:00.002Z,2.50
2019-06-20T05:27:00.005Z,2.20
2019-06-20T05:27:59.982Z,2.40
2019-06-20T05:28:59.984Z,2.00
2019-06-20T05:29:59.965Z,2.40
2019-06-20T05:30:59.947Z,2.00
2019-06-20T05:31:59.935Z,1.90
2019-06-20T05:32:59.924Z,2.70
2019-06-20T05:33:59.935Z,2.50
2019-06-20T05:35:02.904Z,2.40
2019-06-20T05:35:59.921Z,2.60
2019-06-20T05:37:00.011Z,2.40
2019-06-20T05:37:59.870Z,2.50
2019-06-20T05:38:59.888Z,2.80
2019-06-20T05:39:59.851Z,2.40
2019-06-20T05:40:59.840Z,2.50
2019-06-20T05:41:59.867Z,2.50
2019-06-20T05:42:59.833Z,2.50
2019-06-20T05:43:59.828Z,2.40
2019-06-20T05:44:59.815Z,2.40
2019-06-20T05:46:09.292Z,2.60
2019-06-20T05:47:11.872Z,2.30
2019-06-20T05:48:00.767Z,2.70
2019-06-20T05:48:59.771Z,2.30
2019-06-20T05:49:59.765Z,2.10
2019-06-20T05:50:59.743Z,2.40
2019-06-20T05:51:59.731Z,2.80
2019-06-20T05:52:59.714Z,2.40
2019-06-20T05:53:59.710Z,2.50
2019-06-20T05:54:59.717Z,2.40
2019-06-20T05:55:59.721Z,2.40
2019-06-20T05:57:03.318Z,2.70
2019-06-20T05:57:59.678Z,2.60
2019-06-20T05:58:59.660Z,2.90
2019-06-20T05:59:59.655Z,2.90
2019-06-20T06:00:59.630Z,2.60
2019-06-20T06:01:59.643Z,2.60
2019-06-20T06:02:59.636Z,2.40
2019-06-20T06:03:59.599Z,2.50
2019-06-20T06:04:59.593Z,2.70
2019-06-20T06:05:59.579Z,2.60
2019-06-20T06:06:59.565Z,2.50
2019-06-20T06:07:59.562Z,2.60
2019-06-20T06:08:59.535Z,2.60
2019-06-20T06:10:03.680Z,2.30
2019-06-20T06:10:59.523Z,2.70
2019-06-20T06:11:59.518Z,2.80
2019-06-20T06:12:59.497Z,3.30
2019-06-20T06:13:59.509Z,2.30
2019-06-20T06:15:00.989Z,2.50
2019-06-20T06:16:00.251Z,2.40
2019-06-20T06:16:59.459Z,2.30
2019-06-20T06:17:59.445Z,2.40
2019-06-20T06:18:59.439Z,2.60
2019-06-20T06:19:59.429Z,2.70
2019-06-20T06:20:59.414Z,2.70
2019-06-20T06:21:59.409Z,2.70
2019-06-20T06:22:59.401Z,2.60
2019-06-20T06:23:59.705Z,2.70
2019-06-20T06:24:59.375Z,2.60
2019-06-20T06:25:59.359Z,2.80
2019-06-20T06:27:00.060Z,2.60
2019-06-20T06:27:59.340Z,2.50
2019-06-20T06:28:59.324Z,2.40
2019-06-20T06:29:59.320Z,2.50
2019-06-20T06:30:59.302Z,2.80
2019-06-20T06:31:59.287Z,2.50
2019-06-20T06:32:59.286Z,3.00
2019-06-20T06:33:59.264Z,2.60
2019-06-20T06:34:59.271Z,2.80
2019-06-20T06:35:59.248Z,2.70
2019-06-20T06:36:59.230Z,2.90
2019-06-20T06:37:59.218Z,2.80
2019-06-20T06:38:59.208Z,2.80
2019-06-20T06:39:59.241Z,2.80
2019-06-20T06:40:59.188Z,2.90
2019-06-20T06:41:59.217Z,2.80
2019-06-20T06:42:59.166Z,2.60
2019-06-20T06:43:59.174Z,2.90
2019-06-20T06:44:59.155Z,2.70
2019-06-20T06:45:59.144Z,3.00
2019-06-20T06:46:59.774Z,3.10
2019-06-20T06:47:59.108Z,2.90
2019-06-20T06:48:59.103Z,3.10
2019-06-20T06:49:59.100Z,3.10
2019-06-20T06:50:59.082Z,2.90
2019-06-20T06:51:59.071Z,3.10
2019-06-20T06:52:59.061Z,3.20
2019-06-20T06:53:59.055Z,2.90
2019-06-20T06:54:59.066Z,3.30
2019-06-20T06:55:59.036Z,3.10
2019-06-20T06:56:59.021Z,3.90
2019-06-20T06:57:59.010Z,3.30
2019-06-20T06:58:59.003Z,2.80
2019-06-20T06:59:58.997Z,2.90
2019-06-20T07:00:59.009Z,3.00
2019-06-20T07:01:58.962Z,2.80
2019-06-20T07:02:58.949Z,3.00
2019-06-20T07:03:58.936Z,2.90
2019-06-20T07:04:58.929Z,2.70
2019-06-20T07:05:58.926Z,2.80
2019-06-20T07:06:58.915Z,3.20
2019-06-20T07:07:58.911Z,2.50
2019-06-20T07:08:58.912Z,2.50
2019-06-20T07:09:58.873Z,3.00
2019-06-20T07:10:58.875Z,2.80
2019-06-20T07:11:58.853Z,2.80
2019-06-20T07:12:58.842Z,3.10
2019-06-20T07:13:58.833Z,2.60
2019-06-20T07:14:58.836Z,2.70
2019-06-20T07:15:58.820Z,2.90
2019-06-20T07:17:00.684Z,3.00
2019-06-20T07:17:58.785Z,3.00
2019-06-20T07:18:58.795Z,3.10
2019-06-20T07:19:58.773Z,2.50
2019-06-20T07:20:58.785Z,3.10
2019-06-20T07:21:58.741Z,3.10
2019-06-20T07:22:58.752Z,2.90
2019-06-20T07:23:58.799Z,2.90
2019-06-20T07:24:58.719Z,3.00
2019-06-20T07:25:58.755Z,2.50
2019-06-20T07:26:58.689Z,2.90
2019-06-20T07:27:58.678Z,3.00
2019-06-20T07:28:58.666Z,3.00
2019-06-20T07:29:58.664Z,3.10
2019-06-20T07:30:58.656Z,3.00
2019-06-20T07:31:58.653Z,3.20
2019-06-20T07:32:58.618Z,3.20
2019-06-20T07:33:58.609Z,3.00
2019-06-20T07:34:58.607Z,3.60
2019-06-20T07:35:58.599Z,3.30
2019-06-20T07:36:58.587Z,2.90
2019-06-20T07:37:58.592Z,3.20
2019-06-20T07:38:58.557Z,3.00
2019-06-20T07:39:58.546Z,2.90
2019-06-20T07:40:58.546Z,3.60
2019-06-20T07:41:58.527Z,3.90
2019-06-20T07:42:58.526Z,3.40
2019-06-20T07:43:58.503Z,3.00
2019-06-20T07:44:58.510Z,3.70
2019-06-20T07:46:02.856Z,3.30
2019-06-20T07:46:58.479Z,3.20
2019-06-20T07:47:58.462Z,3.10
2019-06-20T07:48:59.444Z,3.10
2019-06-20T07:49:58.455Z,3.40
2019-06-20T07:51:07.442Z,3.30
2019-06-20T07:51:58.431Z,3.30
2019-06-20T07:53:02.583Z,3.30
2019-06-20T07:53:58.390Z,2.80
2019-06-20T07:54:58.377Z,3.30
2019-06-20T07:55:58.380Z,2.80
2019-06-20T07:56:58.358Z,3.30
2019-06-20T07:57:58.350Z,3.20
2019-06-20T07:58:58.346Z,3.50
2019-06-20T07:59:58.330Z,3.10
2019-06-20T08:00:58.460Z,3.00
2019-06-20T08:01:58.303Z,3.20
2019-06-20T08:02:58.294Z,2.80
2019-06-20T08:03:58.280Z,3.30
2019-06-20T08:04:58.273Z,3.10
2019-06-20T08:05:58.277Z,3.20
2019-06-20T08:06:58.277Z,3.00
2019-06-20T08:07:58.249Z,3.00
2019-06-20T08:08:58.257Z,2.90
2019-06-20T08:09:58.218Z,3.00
2019-06-20T08:10:58.205Z,3.10
2019-06-20T08:11:58.238Z,2.80
2019-06-20T08:12:58.184Z,3.30
2019-06-20T08:13:58.183Z,2.80
2019-06-20T08:15:13.771Z,2.70
2019-06-20T08:15:59.161Z,3.10
2019-06-20T08:16:58.161Z,3.10
2019-06-20T08:17:58.135Z,2.90
2019-06-20T08:18:58.160Z,2.70
2019-06-20T08:19:58.201Z,2.70
2019-06-20T08:20:58.107Z,2.80
2019-06-20T08:21:58.103Z,2.80
2019-06-20T08:22:58.084Z,2.60
2019-06-20T08:23:58.124Z,3.30
2019-06-20T08:24:59.024Z,3.00
2019-06-20T08:25:59.249Z,2.90
2019-06-20T08:26:58.710Z,2.80
2019-06-20T08:27:59.427Z,2.70
2019-06-20T08:29:10.231Z,2.60
2019-06-20T08:29:59.125Z,3.00
2019-06-20T08:30:58.963Z,3.00
2019-06-20T08:31:59.480Z,2.90
2019-06-20T08:32:59.865Z,2.50
2019-06-20T08:33:59.266Z,3.00
2019-06-20T08:34:59.419Z,2.70
2019-06-20T08:35:58.928Z,3.30
2019-06-20T08:36:59.241Z,2.80
2019-06-20T08:37:59.322Z,2.80
2019-06-20T08:38:58.735Z,3.00
2019-06-20T08:39:58.424Z,3.40
2019-06-20T08:40:58.450Z,3.60
2019-06-20T08:41:59.231Z,2.80
2019-06-20T08:42:58.855Z,3.00
2019-06-20T08:43:58.449Z,3.10
2019-06-20T08:44:57.961Z,2.80
2019-06-20T08:45:57.928Z,3.10
2019-06-20T08:46:59.376Z,2.90
2019-06-20T08:47:58.330Z,3.00
2019-06-20T08:48:58.264Z,3.00
2019-06-20T08:49:58.454Z,3.20
2019-06-20T08:50:58.541Z,2.60
2019-06-20T08:51:59.123Z,2.90
2019-06-20T08:52:58.477Z,2.60
2019-06-20T08:53:59.215Z,2.50
2019-06-20T08:54:59.253Z,2.80
2019-06-20T08:55:59.317Z,2.60
2019-06-20T08:56:58.986Z,2.80
2019-06-20T08:57:59.413Z,2.50
2019-06-20T08:58:58.549Z,2.50
2019-06-20T08:59:58.785Z,2.60
2019-06-20T09:00:59.645Z,2.50
2019-06-20T09:02:00.274Z,2.50
2019-06-20T09:02:58.612Z,2.30
2019-06-20T09:03:58.500Z,2.10
2019-06-20T09:04:58.041Z,2.30
2019-06-20T09:05:58.262Z,2.30
2019-06-20T09:06:59.153Z,2.40
2019-06-20T09:07:59.000Z,2.30
2019-06-20T09:08:58.260Z,2.50
2019-06-20T09:09:57.656Z,2.70
2019-06-20T09:10:57.560Z,2.40
2019-06-20T09:11:58.586Z,2.40
2019-06-20T09:12:57.576Z,2.30
2019-06-20T09:13:57.531Z,3.00
2019-06-20T09:14:58.878Z,2.40
2019-06-20T09:15:58.721Z,2.00
2019-06-20T09:16:59.222Z,2.60
2019-06-20T09:17:58.471Z,2.40
2019-06-20T09:18:58.419Z,2.40
2019-06-20T09:19:58.046Z,2.40
2019-06-20T09:20:58.090Z,2.40
2019-06-20T09:21:57.996Z,2.20
2019-06-20T09:22:58.838Z,2.40
2019-06-20T09:23:57.771Z,2.10
2019-06-20T09:24:58.473Z,2.40
2019-06-20T09:25:57.595Z,2.20
2019-06-20T09:26:57.389Z,2.00
2019-06-20T09:27:58.127Z,2.20
2019-06-20T09:28:57.367Z,2.60
2019-06-20T09:29:58.522Z,2.40
2019-06-20T09:30:57.382Z,2.30
2019-06-20T09:32:06.688Z,2.20
2019-06-20T09:32:57.830Z,2.30
2019-06-20T09:34:01.616Z,2.40
2019-06-20T09:34:58.678Z,2.50
2019-06-20T09:35:57.529Z,2.40
2019-06-20T09:36:57.514Z,2.40
2019-06-20T09:38:04.312Z,2.20
2019-06-20T09:38:57.904Z,2.00
2019-06-20T09:39:57.298Z,2.20
2019-06-20T09:40:57.227Z,2.30
2019-06-20T09:41:57.214Z,2.30
2019-06-20T09:42:58.635Z,2.50
2019-06-20T09:43:58.488Z,2.70
2019-06-20T09:44:58.353Z,2.70
2019-06-20T09:45:58.378Z,3.00
2019-06-20T09:46:58.213Z,2.70
2019-06-20T09:47:58.268Z,3.00
2019-06-20T09:48:58.673Z,2.80
2019-06-20T09:49:58.638Z,2.20
2019-06-20T09:50:57.167Z,2.20
2019-06-20T09:51:58.617Z,2.20
2019-06-20T09:52:58.298Z,2.20
2019-06-20T09:53:58.202Z,2.20
2019-06-20T09:54:58.239Z,2.00
2019-06-20T09:55:57.812Z,2.10
2019-06-20T09:56:58.390Z,2.30
2019-06-20T09:57:58.187Z,2.40
2019-06-20T09:58:58.239Z,2.10
2019-06-20T10:00:07.902Z,2.40
2019-06-20T10:00:58.012Z,2.40
2019-06-20T10:01:58.742Z,2.10
2019-06-20T10:02:57.865Z,2.40
2019-06-20T10:03:56.989Z,2.20
2019-06-20T10:04:57.032Z,2.10
2019-06-20T10:05:56.963Z,2.30
2019-06-20T10:06:56.946Z,2.70
2019-06-20T10:07:56.976Z,2.50
2019-06-20T10:08:56.939Z,2.10
2019-06-20T10:09:56.914Z,2.50
2019-06-20T10:10:56.902Z,2.40
2019-06-20T10:11:56.892Z,2.70
2019-06-20T10:12:56.891Z,2.50
2019-06-20T10:13:56.874Z,2.20
2019-06-20T10:14:56.864Z,3.20
2019-06-20T10:15:56.853Z,2.60
2019-06-20T10:16:56.967Z,2.60
2019-06-20T10:17:58.505Z,2.70
2019-06-20T10:18:56.888Z,2.80
2019-06-20T10:19:56.823Z,3.00
2019-06-20T10:20:57.704Z,3.00
2019-06-20T10:21:57.499Z,2.50
2019-06-20T10:22:57.483Z,2.50
2019-06-20T10:23:56.798Z,2.90
2019-06-20T10:24:57.869Z,2.90
2019-06-20T10:25:58.155Z,2.90
2019-06-20T10:26:57.937Z,3.20
2019-06-20T10:27:57.902Z,3.00
2019-06-20T10:28:57.418Z,2.80
2019-06-20T10:30:10.474Z,2.90
2019-06-20T10:30:57.895Z,2.80
2019-06-20T10:31:57.298Z,2.70
2019-06-20T10:32:57.702Z,2.80
2019-06-20T10:33:56.937Z,2.90
2019-06-20T10:34:57.171Z,2.80
2019-06-20T10:35:57.267Z,2.60
2019-06-20T10:36:57.070Z,2.70
2019-06-20T10:37:57.164Z,2.70
2019-06-20T10:38:56.927Z,2.40
2019-06-20T10:39:56.812Z,2.50
2019-06-20T10:40:59.898Z,2.80
2019-06-20T10:41:57.245Z,2.80
2019-06-20T10:42:57.014Z,2.50
2019-06-20T10:43:56.697Z,2.40
2019-06-20T10:44:56.538Z,4.40
2019-06-20T10:45:56.750Z,3.60
2019-06-20T10:46:56.533Z,3.30
2019-06-20T10:47:56.508Z,3.00
2019-06-20T10:48:56.529Z,2.30
2019-06-20T10:49:56.488Z,2.10
2019-06-20T10:50:56.472Z,2.50
2019-06-20T10:51:56.460Z,2.40
2019-06-20T10:52:56.448Z,2.20
2019-06-20T10:53:56.449Z,2.50
2019-06-20T10:54:56.429Z,2.40
2019-06-20T10:55:56.416Z,2.50
2019-06-20T10:56:56.405Z,2.20
2019-06-20T10:57:56.398Z,2.10
2019-06-20T10:58:56.435Z,2.20
2019-06-20T10:59:56.385Z,2.10
2019-06-20T11:00:56.395Z,1.90
2019-06-20T11:01:56.353Z,2.20
2019-06-20T11:02:56.341Z,2.10
2019-06-20T11:03:56.344Z,2.40
2019-06-20T11:04:56.327Z,2.20
2019-06-20T11:05:56.310Z,2.20
2019-06-20T11:06:56.298Z,2.30
2019-06-20T11:07:56.290Z,2.40
2019-06-20T11:08:56.292Z,1.90
2019-06-20T11:09:56.275Z,2.00
2019-06-20T11:10:56.281Z,1.80
2019-06-20T11:11:56.251Z,1.90
2019-06-20T11:12:56.585Z,2.30
2019-06-20T11:13:56.242Z,1.90
2019-06-20T11:14:56.211Z,2.00
2019-06-20T11:15:56.200Z,2.00
2019-06-20T11:16:56.191Z,1.90
2019-06-20T11:17:57.065Z,2.10
2019-06-20T11:18:56.184Z,2.00
2019-06-20T11:19:57.022Z,2.30
2019-06-20T11:20:56.192Z,2.10
2019-06-20T11:21:56.135Z,2.00
2019-06-20T11:22:56.135Z,1.70
2019-06-20T11:23:56.123Z,1.70
2019-06-20T11:24:56.107Z,2.10
2019-06-20T11:25:56.107Z,1.90
2019-06-20T11:26:56.088Z,2.00
2019-06-20T11:27:56.078Z,2.50
2019-06-20T11:28:57.099Z,2.20
2019-06-20T11:30:02.637Z,2.20
2019-06-20T11:33:08.048Z,2.10
2019-06-20T11:34:07.776Z,2.10
2019-06-20T11:35:07.752Z,2.00
2019-06-20T11:36:07.752Z,2.50
2019-06-20T11:37:07.740Z,2.40
2019-06-20T11:38:07.721Z,2.20
2019-06-20T11:39:07.722Z,2.40
2019-06-20T11:40:15.993Z,2.00
2019-06-20T11:41:07.691Z,2.40
2019-06-20T11:42:07.683Z,2.10
2019-06-20T11:43:07.677Z,1.80
2019-06-20T11:44:07.781Z,1.90
2019-06-20T11:45:07.659Z,2.10
2019-06-20T11:46:07.639Z,2.30
2019-06-20T11:47:07.628Z,2.20
2019-06-20T11:48:07.623Z,2.30
2019-06-20T11:49:07.616Z,1.80
2019-06-20T11:50:07.601Z,2.00
2019-06-20T11:51:07.594Z,2.60
2019-06-20T11:52:07.579Z,2.60
2019-06-20T11:53:07.568Z,2.00
2019-06-20T11:54:07.879Z,2.00
2019-06-20T11:55:07.543Z,1.90
2019-06-20T11:56:07.543Z,1.90
2019-06-20T11:57:07.530Z,2.50
2019-06-20T11:58:07.513Z,2.10
2019-06-20T11:59:07.503Z,2.00
2019-06-20T12:00:07.502Z,2.10
2019-06-20T12:01:07.479Z,1.60
2019-06-20T12:02:07.473Z,1.60
2019-06-20T12:03:07.459Z,2.20
2019-06-20T12:04:09.422Z,2.00
2019-06-20T12:05:07.461Z,1.90
2019-06-20T12:06:07.436Z,1.70
2019-06-20T12:07:07.418Z,1.80
2019-06-20T12:08:07.412Z,1.40
2019-06-20T12:09:07.425Z,1.70
2019-06-20T12:10:07.398Z,1.50
2019-06-20T12:11:07.384Z,1.80
2019-06-20T12:12:07.368Z,1.90
2019-06-20T12:13:07.357Z,2.40
2019-06-20T12:14:07.411Z,2.50
2019-06-20T12:15:07.349Z,2.10
2019-06-20T12:16:07.340Z,1.80
2019-06-20T12:17:07.323Z,1.90
2019-06-20T12:18:07.328Z,1.90
2019-06-20T12:19:07.299Z,1.70
2019-06-20T12:20:07.294Z,1.70
2019-06-20T12:21:07.277Z,1.40
2019-06-20T12:22:07.264Z,1.70
2019-06-20T12:23:07.255Z,1.60
2019-06-20T12:24:08.678Z,1.30
2019-06-20T12:25:07.244Z,1.50
2019-06-20T12:26:07.218Z,1.80
2019-06-20T12:27:07.252Z,1.70
2019-06-20T12:28:07.207Z,1.60
2019-06-20T12:29:07.236Z,1.90
2019-06-20T12:30:07.193Z,1.80
2019-06-20T12:31:18.845Z,1.60
2019-06-20T12:32:10.056Z,1.80
2019-06-20T12:33:07.182Z,1.40
2019-06-20T12:34:07.184Z,1.70
2019-06-20T12:35:07.139Z,1.50
2019-06-20T12:36:07.118Z,1.70
2019-06-20T12:37:07.101Z,1.50
2019-06-20T12:38:07.096Z,1.60
2019-06-20T12:39:07.082Z,1.70
2019-06-20T12:40:07.114Z,1.70
2019-06-20T12:41:07.060Z,1.60
2019-06-20T12:42:07.052Z,1.60
2019-06-20T12:43:07.038Z,1.70
2019-06-20T12:44:07.045Z,1.90
2019-06-20T12:45:07.038Z,1.90
2019-06-20T12:46:07.062Z,1.60
2019-06-20T12:47:07.001Z,1.90
2019-06-20T12:48:07.015Z,1.80
2019-06-20T12:49:06.978Z,1.60
2019-06-20T12:50:06.983Z,1.80
2019-06-20T12:51:06.957Z,1.60
2019-06-20T12:52:06.950Z,1.80
2019-06-20T12:53:06.941Z,1.80
2019-06-20T12:54:06.942Z,2.00
2019-06-20T12:55:06.929Z,2.10
2019-06-20T12:56:06.917Z,3.20
2019-06-20T12:57:06.894Z,2.30
2019-06-20T12:58:06.892Z,2.10
2019-06-20T12:59:06.877Z,1.80
2019-06-20T13:00:06.875Z,2.10
2019-06-20T13:01:06.852Z,1.70
2019-06-20T13:02:06.844Z,1.90
2019-06-20T13:03:06.857Z,1.80
2019-06-20T13:04:06.817Z,2.00
2019-06-20T13:05:06.856Z,1.80
2019-06-20T13:06:06.799Z,2.10
2019-06-20T13:07:06.787Z,1.70
2019-06-20T13:08:06.778Z,2.00
2019-06-20T13:09:06.768Z,1.90
2019-06-20T13:10:06.755Z,2.00
2019-06-20T13:11:06.755Z,2.00
2019-06-20T13:12:06.734Z,2.20
2019-06-20T13:13:06.731Z,1.90
2019-06-20T13:14:06.720Z,1.90
2019-06-20T13:15:06.703Z,2.30
2019-06-20T13:16:06.769Z,2.10
2019-06-20T13:17:06.687Z,2.00
2019-06-20T13:18:06.757Z,2.30
2019-06-20T13:19:06.668Z,1.90
2019-06-20T13:20:06.655Z,2.10